Westwego, Louisiana
Current Conditions -  °F | °C
As of 1:35 PM on Tuesday 21 Oct 2014 (Local Time) from KVSH Reporting Station
Clear Clear  
Wind Chill: 25°   Ceiling: Unl
Heat Index: 26°   Visibility: 10mi
Dew Point: 10°   Wind: 6mph
Humidity: 39%   Direction: 90°E
Pressure: 30.02"   Gusts: NA
Location:  29.91°N, 90.14°W
Report Text: KVSH 211835Z AUTO 09005KT 10SM CLR 25/10 A3002 RMK AO1
Loading
Personal Weather Stations






























Interactive Weather Map
Tropical Storm Tracking
New forecast layout! Learn more

10-Day Weather Forecast

Advertisements
Track Severe Weather on mobile